KALX/ALX METAR and TAF weather

Enter ICAO airport designator
Station Type Date Time Source
KALX METAR 2023/02/04 01:35 UTC NOAA

KALX 040135Z AUTO 35005KT 10SM CLR 05/M05 A3044 RMK AO2 T00481051


Station Type Date Time Source
KALX Decoded METAR 2023/02/04 01:35 UTC NOAA

Alexander City, Thomas C Russell Field Airport, AL, United States (KALX) 32-54-53N 085-57-46W
Feb 03, 2023 - 08:35 PM EST / 2023.02.04 0135 UTC
Wind: from the N (350 degrees) at 6 MPH (5 KT):0
Visibility: 10 mile(s):0
Sky conditions: clear
Temperature: 40.6 F (4.8 C)
Dew Point: 22.8 F (-5.1 C)
Relative Humidity: 48%
Pressure (altimeter): 30.44 in. Hg (1030 hPa)
ob: KALX 040135Z AUTO 35005KT 10SM CLR 05/M05 A3044 RMK AO2 T00481051
cycle: 1

Station Type Date Time Source
KALX TAF UTC NOAA

Error!

Example: see airport list